Tracy, Iowa
Current Conditions -  °F | °C
As of 12:55 PM on Sunday 23 Nov 2014 (Local Time) from KPEA Reporting Station
Light Rain Light Rain  
Wind Chill: 51°   Ceiling: 500
Heat Index: 51°   Visibility: 2.5mi
Dew Point: 51°   Wind: 3mph
Humidity: 99%   Direction: 170°S
Pressure: 29.4"   Gusts: NA
Location:  41.28°N, 92.88°W
Report Text: KPEA 231855Z AUTO 17003KT 2 1/2SM -RA OVC005 11/11 A2940 RMK AO2 T01080106
Loading
Personal Weather Stations






























Interactive Weather Map New forecast layout! Learn more

10-Day Weather Forecast

Advertisements
Track Severe Weather on mobile